This is the latest recevied weather packets stored in our database for station/object K4PAD. If no packets are shown the sender has not sent any weather packets the latest 10 day(s).
| Time | Temp. | Humidity | Pressure | Rain* | Wind** | Luminosity | Snow |
|---|---|---|---|---|---|---|---|
| 1777665732 | 30.56° C | 45% | 1011 hPa | 0 mm | - | 790 W/m² | - |
| 1777665430 | 30.56° C | 46% | 1011 hPa | 0 mm | - | 292 W/m² | - |
| 1777665126 | 31.11° C | 44% | 1011.2 hPa | 0 mm | - | 496 W/m² | - |
| 1777664822 | 31.11° C | 44% | 1011.2 hPa | 0 mm | - | 906 W/m² | - |
| 1777664517 | 31.67° C | 43% | 1011.3 hPa | 0 mm | - | 979 W/m² | - |
| 1777664214 | 30.56° C | 46% | 1011.4 hPa | 0 mm | - | 1027 W/m² | - |
| 1777663913 | 30.56° C | 46% | 1011.7 hPa | 0 mm | - | 363 W/m² | - |
| 1777663610 | 30° C | 46% | 1011.8 hPa | 0 mm | - | 901 W/m² | - |
| 1777663307 | 30° C | 47% | 1011.8 hPa | 0 mm | - | 1118 W/m² | - |
| 1777663004 | 30° C | 47% | 1012.2 hPa | 0 mm | - | 316 W/m² | - |
| 1777662701 | 30° C | 47% | 1011.9 hPa | 0 mm | - | 466 W/m² | - |
| 1777662397 | 29.44° C | 49% | 1012.1 hPa | 0 mm | - | 1080 W/m² | - |
| 1777662092 | 28.89° C | 49% | 1012.3 hPa | 0 mm | - | 404 W/m² | - |
| 1777661789 | 30° C | 48% | 1012.1 hPa | 0 mm | - | 279 W/m² | - |
| 1777661484 | 30° C | 48% | 1012.2 hPa | 0 mm | - | 301 W/m² | - |
| 1777661181 | 30° C | 49% | 1012 hPa | 0 mm | - | 870 W/m² | - |
| 1777660875 | 30° C | 47% | 1012.2 hPa | 0 mm | - | 1123 W/m² | - |
| 1777660573 | 29.44° C | 50% | 1012.1 hPa | 0 mm | - | 993 W/m² | - |
| 1777660269 | 30° C | 47% | 1012.1 hPa | 0 mm | - | 316 W/m² | - |
| 1777659966 | 30° C | 47% | 1012.5 hPa | 0 mm | - | 943 W/m² | - |
| 1777659663 | 30° C | 47% | 1012.6 hPa | 0 mm | - | 1195 W/m² | - |
| 1777659360 | 29.44° C | 48% | 1012.6 hPa | 0 mm | - | 1160 W/m² | - |
| 1777659056 | 28.89° C | 50% | 1012.7 hPa | 0 mm | - | 1385 W/m² | - |
| 1777658754 | 28.89° C | 50% | 1012.7 hPa | 0 mm | - | 411 W/m² | - |
| 1777658450 | 28.89° C | 50% | 1012.6 hPa | 0 mm | - | 322 W/m² | - |
* Rain latest hour (hover to see other rain measurements)
** Current wind speed in m/s (hover to see current wind gust speed)